Time;durP1;ratioP1;P1;durP2;ratioP2;P2;SDS_P1;SDS_P2;PMS_P1;PMS_P2;Temp;Humidity;BMP_temperature;BMP_pressure;BME280_temperature;BME280_humidity;BME280_pressure;Samples;Min_cycle;Max_cycle;Signal;HPM_P1;HPM_P2
2020/12/24 00:00:37;;;;;;;29.23;17.87;;;;;;;5.84;76.56;100895.59;1746966;82;21135;-63
2020/12/24 00:03:04;;;;;;;28.67;17.77;;;;;;;5.86;76.52;100892.99;1718921;82;21198;-63
2020/12/24 00:05:33;;;;;;;31.93;19.15;;;;;;;5.75;76.81;100903.28;1689097;84;21131;-64
2020/12/24 00:08:01;;;;;;;33.00;19.40;;;;;;;5.81;76.68;100909.92;1748205;82;21152;-64
2020/12/24 00:10:28;;;;;;;29.95;17.70;;;;;;;5.78;76.78;100903.33;1748354;81;21151;-64
2020/12/24 00:12:56;;;;;;;32.38;19.73;;;;;;;5.84;76.62;100910.38;1747056;82;21147;-63
2020/12/24 00:15:24;;;;;;;33.05;18.80;;;;;;;5.82;76.62;100916.90;1747000;82;21136;-64
2020/12/24 00:17:51;;;;;;;30.95;18.25;;;;;;;5.83;76.64;100909.92;1748078;82;21159;-65
2020/12/24 00:20:18;;;;;;;30.65;17.98;;;;;;;5.92;76.46;100911.37;1746487;82;21131;-64
2020/12/24 00:22:46;;;;;;;35.38;19.90;;;;;;;5.94;76.36;100909.67;1748497;81;21560;-65
2020/12/24 00:25:13;;;;;;;32.85;19.12;;;;;;;5.97;76.18;100912.33;1710676;83;21138;-64
2020/12/24 00:27:41;;;;;;;32.50;19.50;;;;;;;5.96;76.14;100911.44;1748302;81;21139;-64
2020/12/24 00:30:08;;;;;;;32.50;19.60;;;;;;;5.96;76.10;100911.44;1746055;81;21135;-64
2020/12/24 00:32:36;;;;;;;39.10;20.20;;;;;;;5.98;76.18;100914.50;1718558;82;21143;-64
2020/12/24 00:35:04;;;;;;;37.78;20.75;;;;;;;5.97;76.15;100908.41;1748139;82;21164;-64
2020/12/24 00:37:32;;;;;;;38.35;21.12;;;;;;;5.96;76.22;100910.58;1748092;81;21192;-64
2020/12/24 00:39:59;;;;;;;35.58;20.02;;;;;;;6.01;76.11;100911.56;1725121;81;21111;-64
2020/12/24 00:42:27;;;;;;;31.73;17.70;;;;;;;6.03;76.08;100908.95;1741607;82;21124;-64
2020/12/24 00:44:54;;;;;;;30.90;18.48;;;;;;;6.04;76.05;100911.61;1748578;82;21871;-65
2020/12/24 00:47:21;;;;;;;37.53;19.07;;;;;;;6.05;76.12;100910.75;1748036;82;21159;-64
2020/12/24 00:49:51;;;;;;;36.13;20.08;;;;;;;6.08;76.09;100909.49;1746028;82;21155;-63
2020/12/24 00:52:19;;;;;;;36.28;18.45;;;;;;;6.06;76.02;100914.23;1711874;83;21629;-63
2020/12/24 00:54:46;;;;;;;33.13;19.25;;;;;;;6.06;76.04;100915.13;1756315;82;21111;-64
2020/12/24 00:57:14;;;;;;;30.08;18.57;;;;;;;6.08;75.99;100916.03;1755404;82;21134;-64
2020/12/24 00:59:42;;;;;;;32.38;19.02;;;;;;;6.04;76.23;100906.80;1754668;82;21126;-64
2020/12/24 01:02:10;;;;;;;30.62;18.37;;;;;;;6.03;76.31;100903.31;1756102;82;21651;-64
2020/12/24 01:04:38;;;;;;;34.80;18.98;;;;;;;6.04;76.30;100903.77;1756288;82;21202;-65
2020/12/24 01:07:05;;;;;;;34.73;19.15;;;;;;;6.00;76.42;100898.05;1755669;81;21127;-66
2020/12/24 01:09:33;;;;;;;36.80;19.95;;;;;;;5.98;76.55;100897.52;1755563;81;21131;-63
2020/12/24 01:12:00;;;;;;;34.50;19.07;;;;;;;6.03;76.42;100895.48;1719945;83;21633;-63
2020/12/24 01:14:28;;;;;;;34.25;19.40;;;;;;;6.10;76.18;100896.44;1756055;82;21191;-64
2020/12/24 01:16:55;;;;;;;37.45;20.45;;;;;;;6.17;75.88;100895.67;1716689;83;21579;-64
2020/12/24 01:19:23;;;;;;;35.92;19.92;;;;;;;6.17;75.91;100899.59;1756094;82;21139;-63
2020/12/24 01:21:50;;;;;;;35.25;19.92;;;;;;;6.12;76.05;100901.26;1756018;82;21172;-64
2020/12/24 01:24:18;;;;;;;35.45;19.15;;;;;;;6.12;76.13;100903.01;1756360;81;21194;-64
2020/12/24 01:26:49;;;;;;;36.33;20.10;;;;;;;6.13;76.08;100904.77;1753904;82;21123;-64
2020/12/24 01:29:16;;;;;;;;;;;;;;;6.14;76.00;100901.30;1758904;82;21151;-65
2020/12/24 01:31:47;;;;;;;36.15;18.05;;;;;;;6.15;75.91;100895.22;1756314;82;20429;-65
2020/12/24 01:34:16;;;;;;;35.43;19.98;;;;;;;6.14;75.95;100898.68;1755673;81;21348;-65
2020/12/24 01:36:44;;;;;;;37.73;21.68;;;;;;;6.10;76.05;100889.91;1752963;82;21130;-65
2020/12/24 01:39:13;;;;;;;32.78;18.77;;;;;;;6.05;76.13;100892.88;1756071;82;21178;-65
2020/12/24 01:41:44;;;;;;;34.83;20.10;;;;;;;6.05;76.08;100895.08;1756039;82;21179;-65
2020/12/24 01:44:11;;;;;;;35.20;20.02;;;;;;;6.03;76.22;100888.05;1687434;82;21592;-66
2020/12/24 01:46:39;;;;;;;37.90;20.17;;;;;;;6.03;76.32;100888.05;1755308;80;21159;-65
2020/12/24 01:49:09;;;;;;;33.25;18.85;;;;;;;6.13;76.03;100888.64;1755261;81;21159;-65
2020/12/24 01:51:36;;;;;;;37.95;19.55;;;;;;;6.14;75.93;100879.94;1756516;80;21593;-66
2020/12/24 01:54:03;;;;;;;41.02;22.13;;;;;;;6.15;75.89;100883.01;1748419;82;21571;-66
2020/12/24 01:56:31;;;;;;;35.52;18.90;;;;;;;6.17;75.80;100879.98;1748060;82;21302;-65
2020/12/24 01:59:00;;;;;;;34.20;19.75;;;;;;;6.15;75.79;100874.30;1748155;81;21159;-65
2020/12/24 02:01:28;;;;;;;36.05;20.45;;;;;;;6.10;75.88;100875.52;1746811;82;21614;-65
2020/12/24 02:03:55;;;;;;;36.63;21.23;;;;;;;6.10;75.85;100868.99;1742998;82;21119;-65
2020/12/24 02:06:23;;;;;;;36.70;21.52;;;;;;;6.10;75.80;100884.27;1718520;83;21325;-65
2020/12/24 02:08:53;;;;;;;38.05;21.55;;;;;;;6.11;75.81;100875.98;1664292;83;21177;-65
2020/12/24 02:11:21;;;;;;;39.10;21.15;;;;;;;6.10;75.81;100875.11;1711501;84;21189;-66
2020/12/24 02:13:49;;;;;;;39.08;21.33;;;;;;;6.09;75.93;100880.30;1714790;83;21180;-66
2020/12/24 02:16:16;;;;;;;38.45;21.62;;;;;;;6.08;75.93;100875.52;1718619;82;21204;-65
2020/12/24 02:18:44;;;;;;;33.98;20.52;;;;;;;6.17;75.68;100873.89;1726768;82;21162;-65
2020/12/24 02:21:12;;;;;;;39.30;21.35;;;;;;;6.16;75.71;100870.83;1748192;81;21575;-64
2020/12/24 02:23:39;;;;;;;38.02;21.42;;;;;;;6.12;75.78;100875.56;1733544;82;21088;-65
2020/12/24 02:26:07;;;;;;;39.18;21.80;;;;;;;6.17;75.57;100879.98;1718333;83;21216;-65
2020/12/24 02:28:35;;;;;;;39.90;22.62;;;;;;;6.16;75.57;100874.75;1735634;82;21155;-65
2020/12/24 02:31:03;;;;;;;41.77;21.87;;;;;;;6.13;75.64;100875.57;1747418;82;21147;-65
2020/12/24 02:33:30;;;;;;;37.25;20.48;;;;;;;6.09;75.77;100879.89;1748049;82;21179;-65
2020/12/24 02:35:58;;;;;;;37.25;22.30;;;;;;;6.16;75.54;100873.45;1748040;81;21148;-65
2020/12/24 02:38:25;;;;;;;39.40;22.15;;;;;;;6.15;75.46;100867.33;1747058;81;21175;-65
2020/12/24 02:40:53;;;;;;;39.08;22.82;;;;;;;6.05;75.72;100862.41;1748421;81;21523;-65
2020/12/24 02:43:20;;;;;;;49.58;23.80;;;;;;;6.04;75.80;100862.37;1747472;82;21606;-64
2020/12/24 02:45:48;;;;;;;38.83;23.22;;;;;;;6.06;75.76;100864.16;1747448;82;21285;-64
2020/12/24 02:48:16;;;;;;;41.60;23.75;;;;;;;6.11;75.54;100851.14;1747903;82;21195;-66
2020/12/24 02:50:43;;;;;;;43.25;24.12;;;;;;;6.13;75.52;100840.73;1731583;81;21132;-65
2020/12/24 02:53:11;;;;;;;44.38;23.32;;;;;;;6.16;75.33;100844.70;1750781;81;21175;-65
2020/12/24 02:55:38;;;;;;;42.70;22.70;;;;;;;6.21;75.09;100847.81;1760266;81;21582;-65
2020/12/24 02:58:06;;;;;;;44.53;23.20;;;;;;;6.15;75.17;100854.25;1761494;81;21547;-65
2020/12/24 03:00:33;;;;;;;40.15;22.62;;;;;;;6.08;75.35;100855.02;1755298;81;21110;-65
2020/12/24 03:03:01;;;;;;;49.88;25.52;;;;;;;6.07;75.27;100859.80;1709124;83;21157;-65
2020/12/24 03:05:28;;;;;;;55.40;27.13;;;;;;;5.95;75.62;100870.52;1707507;84;21179;-65
2020/12/24 03:07:56;;;;;;;57.65;30.70;;;;;;;5.96;75.73;100868.77;1700017;84;21153;-65
2020/12/24 03:10:23;;;;;;;49.75;25.90;;;;;;;;;;1694305;83;21178;-65
2020/12/24 03:12:51;;;;;;;46.70;25.45;;;;;;;5.87;76.05;100863.41;1706033;83;21183;-64
2020/12/24 03:15:18;;;;;;;48.40;24.40;;;;;;;5.87;76.10;100861.69;1714711;83;21234;-65
2020/12/24 03:17:46;;;;;;;42.13;23.92;;;;;;;5.87;76.12;100862.99;1715121;84;21167;-64
2020/12/24 03:20:17;;;;;;;41.83;22.95;;;;;;;5.86;76.15;100863.84;1701100;84;21190;-64
2020/12/24 03:22:44;;;;;;;41.35;23.87;;;;;;;5.85;76.18;100864.70;1720181;83;21134;-64
2020/12/24 03:25:12;;;;;;;45.88;24.40;;;;;;;5.87;76.25;100871.23;1706612;84;21155;-65
2020/12/24 03:27:39;;;;;;;42.30;22.52;;;;;;;5.88;76.30;100873.00;1705403;83;21165;-65
2020/12/24 03:30:09;;;;;;;42.80;22.48;;;;;;;5.91;76.29;100872.63;1701529;83;21158;-65
2020/12/24 03:32:37;;;;;;;40.73;24.20;;;;;;;5.98;76.12;100866.16;1721291;83;21187;-65
2020/12/24 03:35:05;;;;;;;42.00;23.62;;;;;;;5.95;76.16;100862.68;1695489;84;21169;-64
2020/12/24 03:37:33;;;;;;;44.33;23.70;;;;;;;5.95;76.20;100846.11;1707246;84;21324;-65
2020/12/24 03:40:00;;;;;;;48.13;24.80;;;;;;;5.99;76.18;100845.70;1704217;84;21677;-65
2020/12/24 03:42:28;;;;;;;43.20;23.75;;;;;;;5.99;76.13;100852.24;1707847;84;21159;-65
2020/12/24 03:44:55;;;;;;;40.05;23.38;;;;;;;6.01;76.13;100851.87;1707224;84;21306;-65
2020/12/24 03:47:23;;;;;;;48.30;25.60;;;;;;;6.03;76.07;100848.85;1706577;84;21139;-65
2020/12/24 03:49:50;;;;;;;43.17;24.07;;;;;;;6.10;75.82;100848.08;1704788;84;21143;-65
2020/12/24 03:52:18;;;;;;;46.85;25.50;;;;;;;6.05;76.00;100851.06;1706903;84;21493;-65
2020/12/24 03:54:47;;;;;;;47.10;24.05;;;;;;;6.06;76.02;100851.51;1695442;84;21139;-62
2020/12/24 03:57:14;;;;;;;44.15;25.85;;;;;;;6.04;76.03;100838.84;1691222;84;21167;-62
2020/12/24 03:59:42;;;;;;;47.67;25.52;;;;;;;6.01;76.07;100842.31;1756108;82;21526;-63
2020/12/24 04:02:10;;;;;;;47.65;25.32;;;;;;;5.98;76.06;100834.39;1756493;82;21288;-63
2020/12/24 04:04:38;;;;;;;49.25;27.62;;;;;;;6.01;75.95;100835.78;1756064;82;21146;-62
2020/12/24 04:07:07;;;;;;;44.53;27.13;;;;;;;6.01;75.95;100833.58;1730298;81;21179;-62
2020/12/24 04:09:35;;;;;;;43.50;25.23;;;;;;;5.86;76.33;100829.87;1726188;83;21300;-63
2020/12/24 04:12:03;;;;;;;46.23;24.70;;;;;;;5.86;76.46;100840.74;1711798;83;21170;-62
2020/12/24 04:17:10;;;;;;;42.93;25.65;;;;;;;5.98;76.13;100829.58;1828323;77;22198;-63
2020/12/24 04:19:37;;;;;;;48.63;26.60;;;;;;;5.95;76.16;100830.02;1793030;80;21143;-63
2020/12/24 04:22:05;;;;;;;46.63;25.08;;;;;;;5.98;76.13;100829.58;1792978;80;21310;-63
2020/12/24 04:24:32;;;;;;;44.67;25.15;;;;;;;6.01;76.02;100826.63;1793275;78;21123;-63
2020/12/24 04:27:00;;;;;;;44.50;24.55;;;;;;;5.95;76.19;100828.71;1792913;80;21166;-63
2020/12/24 04:29:27;;;;;;;43.52;24.72;;;;;;;5.96;76.14;100829.13;1792952;80;21563;-62
2020/12/24 04:31:54;;;;;;;42.85;23.67;;;;;;;5.98;76.16;100836.11;1792958;80;21574;-61
2020/12/24 04:34:22;;;;;;;46.40;26.90;;;;;;;5.96;76.12;100839.58;1795852;78;21134;-62
2020/12/24 04:36:50;;;;;;;47.23;27.00;;;;;;;5.96;76.14;100839.58;1758530;81;21150;-63
2020/12/24 04:39:18;;;;;;;45.80;27.30;;;;;;;5.97;76.10;100845.70;1756348;81;21095;-63
2020/12/24 04:41:47;;;;;;;47.08;26.62;;;;;;;5.99;76.11;100842.69;1764808;81;21176;-63
2020/12/24 04:44:14;;;;;;;55.43;32.38;;;;;;;6.00;76.11;100848.77;1752340;81;21536;-63
2020/12/24 04:46:43;;;;;;;58.68;32.40;;;;;;;6.01;76.17;100849.25;1729529;81;21158;-62
2020/12/24 04:49:11;;;;;;;52.08;28.65;;;;;;;6.00;76.37;100846.16;1743393;81;21134;-62
2020/12/24 04:51:38;;;;;;;45.23;27.20;;;;;;;6.04;76.18;100841.46;1737027;82;21147;-63
2020/12/24 04:54:06;;;;;;;48.58;27.02;;;;;;;6.01;76.26;100836.19;1750953;81;21107;-63
2020/12/24 04:56:33;;;;;;;49.80;27.17;;;;;;;6.03;76.33;100841.02;1758322;81;21179;-62
2020/12/24 04:59:01;;;;;;;42.10;25.17;;;;;;;5.97;76.48;100839.17;1734765;81;21139;-63
2020/12/24 05:01:28;;;;;;;49.45;26.90;;;;;;;5.97;76.51;100837.86;1760706;81;21284;-63
2020/12/24 05:03:56;;;;;;;44.73;26.00;;;;;;;5.96;76.49;100834.80;1748597;82;21147;-62
2020/12/24 05:06:26;;;;;;;45.43;26.07;;;;;;;5.95;76.62;100833.94;1737224;82;21121;-63
2020/12/24 05:08:57;;;;;;;45.17;25.68;;;;;;;6.00;76.58;100837.02;1737060;82;21162;-63
2020/12/24 05:11:33;;;;;;;46.05;28.55;;;;;;;6.01;76.52;100831.86;1737372;82;21135;-64
2020/12/24 05:14:19;;;;;;;63.17;35.28;;;;;;;6.01;76.54;100831.86;1737166;82;21127;-65
2020/12/24 05:17:04;;;;;;;53.50;31.30;;;;;;;6.04;76.49;100825.78;1732009;81;21190;-63
2020/12/24 05:19:47;;;;;;;69.58;40.20;;;;;;;6.07;76.37;100815.38;1784925;80;21146;-64
2020/12/24 05:22:21;;;;;;;83.33;46.90;;;;;;;6.08;76.30;100814.52;1789213;79;21132;-64
2020/12/24 05:24:49;;;;;;;118.75;67.55;;;;;;;6.05;76.38;100811.45;1786104;79;21118;-63
2020/12/24 05:27:22;;;;;;;130.35;72.27;;;;;;;6.05;76.39;100814.06;1787637;80;21131;-63
2020/12/24 05:29:51;;;;;;;123.55;70.03;;;;;;;6.05;76.45;100812.75;1787484;80;21115;-63
2020/12/24 05:32:29;;;;;;;112.50;66.65;;;;;;;6.09;76.47;100821.50;1787514;80;21123;-63
2020/12/24 05:35:09;;;;;;;139.80;80.60;;;;;;;6.13;76.37;100825.91;1802062;79;21502;-62
2020/12/24 05:37:38;;;;;;;117.33;67.00;;;;;;;6.13;76.36;100823.30;1816637;79;21200;-64
2020/12/24 05:40:28;;;;;;;82.20;47.30;;;;;;;6.14;76.37;100818.97;1817064;79;21158;-64
2020/12/24 05:42:57;;;;;;;72.87;43.83;;;;;;;6.18;76.19;100822.07;1792941;79;21554;-63
2020/12/24 05:45:31;;;;;;;70.90;42.45;;;;;;;6.14;76.26;100823.75;1784381;80;21597;-63
2020/12/24 05:48:13;;;;;;;68.75;41.30;;;;;;;6.17;76.14;100823.79;1784556;80;21148;-64
2020/12/24 05:50:42;;;;;;;55.08;34.80;;;;;;;6.18;76.26;100825.55;1790871;79;21558;-64
2020/12/24 05:53:12;;;;;;;57.03;33.00;;;;;;;6.33;75.96;100830.09;1786291;79;21119;-65
2020/12/24 05:55:41;;;;;;;53.83;32.20;;;;;;;6.35;76.16;100828.37;1785881;80;21190;-65
2020/12/24 05:58:09;;;;;;;62.80;36.85;;;;;;;6.44;76.14;100822.36;1791467;79;21130;-65
2020/12/24 06:00:41;;;;;;;103.40;57.00;;;;;;;6.55;75.99;100827.74;1729488;82;21163;-64
2020/12/24 06:03:17;;;;;;;70.00;40.83;;;;;;;6.59;75.69;100820.80;1794234;79;21146;-63
2020/12/24 06:05:58;;;;;;;66.22;36.98;;;;;;;6.60;75.53;100820.83;1785391;79;21134;-64
2020/12/24 06:08:31;;;;;;;52.90;32.25;;;;;;;6.60;75.33;100819.94;1786790;79;21546;-64
2020/12/24 06:11:07;;;;;;;49.33;27.25;;;;;;;6.55;75.23;100818.59;1790425;79;21134;-64
2020/12/24 06:13:45;;;;;;;45.35;27.52;;;;;;;6.54;75.16;100819.45;1788753;79;21166;-64
2020/12/24 06:16:14;;;;;;;46.33;26.50;;;;;;;6.57;75.08;100814.25;1687183;83;21319;-64
2020/12/24 06:18:44;;;;;;;44.90;26.12;;;;;;;6.48;75.26;100810.22;1767095;80;21121;-64
2020/12/24 06:21:19;;;;;;;46.50;27.48;;;;;;;6.34;75.56;100813.54;1769388;80;21615;-65
2020/12/24 06:24:00;;;;;;;51.53;27.90;;;;;;;6.31;75.78;100814.80;1767465;80;21103;-64
2020/12/24 06:26:41;;;;;;;67.78;31.85;;;;;;;6.30;75.85;100814.36;1739323;80;21123;-64
2020/12/24 06:29:08;;;;;;;68.55;31.48;;;;;;;6.33;75.78;100807.86;1739996;80;21158;-65
2020/12/24 06:31:40;;;;;;;62.25;33.02;;;;;;;6.35;75.80;100808.76;1730611;82;21200;-65
2020/12/24 06:34:23;;;;;;;54.38;31.35;;;;;;;6.34;75.77;100807.45;1767401;80;21134;-65
2020/12/24 06:36:51;;;;;;;56.45;29.45;;;;;;;6.42;75.83;100803.61;1778275;80;21122;-64
2020/12/24 06:39:44;;;;;;;56.53;32.20;;;;;;;6.37;75.88;100805.73;1778988;80;21130;-65
2020/12/24 06:42:37;;;;;;;56.18;30.43;;;;;;;6.35;76.01;100796.13;1730497;82;21171;-64
2020/12/24 06:45:15;;;;;;;50.75;28.75;;;;;;;6.34;75.95;100790.01;1753404;81;21148;-65
2020/12/24 06:47:43;;;;;;;51.90;28.73;;;;;;;6.33;76.02;100794.79;1772795;80;21168;-65
2020/12/24 06:50:36;;;;;;;53.33;29.87;;;;;;;6.34;76.13;100802.22;1754721;80;21522;-65
2020/12/24 06:53:25;;;;;;;52.23;29.48;;;;;;;6.34;76.16;100803.08;1779555;80;21550;-64
2020/12/24 06:56:22;;;;;;;73.55;40.30;;;;;;;6.37;76.18;100807.48;1780520;80;21162;-64
2020/12/24 06:59:03;;;;;;;61.33;35.25;;;;;;;6.42;76.18;100816.68;1718270;83;21191;-64
2020/12/24 07:01:35;;;;;;;55.00;30.05;;;;;;;6.46;76.12;100819.78;1707873;83;21139;-64
2020/12/24 07:04:05;;;;;;;53.95;29.32;;;;;;;6.47;76.08;100813.25;1784701;80;21582;-64
2020/12/24 07:06:49;;;;;;;51.92;30.43;;;;;;;6.51;76.15;100818.10;1719480;82;21157;-63
2020/12/24 07:09:28;;;;;;;48.35;28.75;;;;;;;6.55;76.05;100825.12;1700079;83;21151;-63
2020/12/24 07:11:59;;;;;;;52.00;31.95;;;;;;;6.53;76.16;100819.86;1783440;80;21139;-63
2020/12/24 07:14:31;;;;;;;54.23;33.38;;;;;;;6.55;76.20;100818.14;1737037;82;21161;-63
2020/12/24 07:17:16;;;;;;;52.13;32.08;;;;;;;6.56;76.25;100820.34;1767221;80;21291;-63
2020/12/24 07:19:48;;;;;;;51.90;30.05;;;;;;;6.57;76.31;100819.90;1778432;79;21516;-65
2020/12/24 07:22:17;;;;;;;55.28;31.90;;;;;;;6.58;76.45;100812.50;1778932;81;21266;-64
2020/12/24 07:24:57;;;;;;;55.17;30.27;;;;;;;6.61;76.47;100813.43;1784806;79;21163;-65
2020/12/24 07:27:25;;;;;;;;;;;;;;;6.66;76.38;100813.02;1736769;81;21306;-65
2020/12/24 07:29:52;;;;;;;50.58;27.87;;;;;;;6.68;76.23;100810.44;1780483;79;20418;-63
2020/12/24 07:32:20;;;;;;;49.85;29.42;;;;;;;6.70;76.30;100816.13;1746833;81;21596;-64
2020/12/24 07:34:47;;;;;;;51.58;30.23;;;;;;;6.72;76.15;100814.84;1720966;82;21563;-65
2020/12/24 07:37:16;;;;;;;52.67;31.73;;;;;;;6.74;76.13;100814.84;1796329;79;21143;-63
2020/12/24 07:39:53;;;;;;;55.28;30.62;;;;;;;6.73;76.22;100815.70;1778556;79;21349;-63
2020/12/24 07:42:24;;;;;;;52.98;31.55;;;;;;;6.75;76.19;100818.80;1788888;79;21135;-65
2020/12/24 07:44:52;;;;;;;53.73;30.50;;;;;;;6.80;76.07;100822.77;1789348;79;21534;-64
2020/12/24 07:47:20;;;;;;;58.73;34.23;;;;;;;6.79;76.13;100832.37;1788245;79;21123;-64
2020/12/24 07:49:53;;;;;;;51.83;30.10;;;;;;;6.77;76.00;100839.73;1785535;79;21511;-64
2020/12/24 07:52:20;;;;;;;53.08;31.52;;;;;;;6.72;76.01;100838.39;1778654;80;21623;-64
2020/12/24 07:54:49;;;;;;;54.53;31.62;;;;;;;6.77;76.01;100842.34;1742049;82;21135;-65
2020/12/24 07:57:21;;;;;;;52.20;31.12;;;;;;;6.83;76.02;100848.96;1778624;79;21322;-63
2020/12/24 07:59:59;;;;;;;56.25;30.48;;;;;;;6.83;76.00;100837.19;1778353;80;21765;-64
2020/12/24 08:02:27;;;;;;;49.42;31.60;;;;;;;6.88;75.98;100835.91;1778331;81;21714;-63
2020/12/24 08:04:55;;;;;;;52.75;30.62;;;;;;;6.88;76.11;100830.27;1778549;81;21155;-64
2020/12/24 08:07:24;;;;;;;51.23;31.73;;;;;;;6.93;76.11;100840.35;1778493;81;21185;-64
2020/12/24 08:09:51;;;;;;;54.80;32.45;;;;;;;6.94;76.00;100832.95;1779151;81;21174;-64
2020/12/24 08:12:22;;;;;;;57.95;34.27;;;;;;;7.00;76.07;100832.12;1778811;81;21173;-63
2020/12/24 08:14:50;;;;;;;57.33;33.23;;;;;;;7.05;76.03;100842.66;1783337;79;21092;-64
2020/12/24 08:17:31;;;;;;;56.20;32.13;;;;;;;7.12;75.85;100844.03;1787144;79;21570;-64
2020/12/24 08:20:07;;;;;;;58.85;34.38;;;;;;;7.18;75.81;100839.71;1791283;79;21143;-64
2020/12/24 08:22:52;;;;;;;50.85;31.60;;;;;;;7.18;75.53;100842.33;1787043;80;21204;-64
2020/12/24 08:25:20;;;;;;;62.60;35.75;;;;;;;7.16;75.74;100840.99;1787201;80;21562;-63
2020/12/24 08:27:47;;;;;;;57.88;34.18;;;;;;;7.18;75.66;100832.72;1758383;80;21606;-63
2020/12/24 08:30:15;;;;;;;64.25;36.70;;;;;;;7.23;75.56;100826.23;1757546;80;21105;-63
2020/12/24 08:32:43;;;;;;;70.37;39.67;;;;;;;7.23;75.53;100820.55;1749772;82;21558;-64
2020/12/24 08:35:13;;;;;;;65.05;37.38;;;;;;;7.26;75.58;100811.86;1787060;80;21130;-63
2020/12/24 08:37:41;;;;;;;;;;;;;;;7.28;75.74;100811.00;1789798;80;21468;-63
2020/12/24 08:40:25;;;;;;;58.20;34.43;;;;;;;7.35;75.68;100804.05;1787193;80;20402;-63
2020/12/24 08:42:58;;;;;;;55.90;34.98;;;;;;;7.45;75.17;100803.72;1750068;82;21151;-63
2020/12/24 08:45:27;;;;;;;54.50;33.23;;;;;;;7.44;75.36;100796.72;1786174;79;21269;-64
2020/12/24 08:47:55;;;;;;;57.90;34.08;;;;;;;7.41;75.63;100791.02;1786998;79;21091;-63
2020/12/24 08:50:34;;;;;;;55.92;33.65;;;;;;;7.44;75.72;100791.48;1786680;80;21602;-64
2020/12/24 08:53:05;;;;;;;53.02;32.53;;;;;;;7.49;75.62;100791.09;1786558;80;21131;-64
2020/12/24 08:55:33;;;;;;;60.08;35.40;;;;;;;7.51;75.58;100788.47;1787771;79;21462;-64
2020/12/24 08:58:00;;;;;;;58.68;35.60;;;;;;;7.54;75.52;100780.18;1791375;79;21131;-63
2020/12/24 09:00:28;;;;;;;50.23;31.57;;;;;;;7.57;75.44;100773.66;1791622;79;21146;-63
2020/12/24 09:02:56;;;;;;;64.65;36.40;;;;;;;7.62;75.35;100772.39;1787161;79;21651;-64
2020/12/24 09:05:25;;;;;;;55.78;34.15;;;;;;;7.65;75.20;100764.55;1787096;79;21272;-64
2020/12/24 09:07:54;;;;;;;62.90;37.65;;;;;;;7.67;75.31;100763.23;1795479;79;21166;-65
2020/12/24 09:10:26;;;;;;;62.20;35.92;;;;;;;7.73;75.31;100754.97;1750002;82;21186;-64
2020/12/24 09:13:00;;;;;;;60.98;36.53;;;;;;;7.81;75.25;100757.66;1796614;79;21194;-64
2020/12/24 09:15:28;;;;;;;63.20;35.88;;;;;;;7.80;75.60;100756.31;1787524;80;21131;-64
2020/12/24 09:17:58;;;;;;;54.50;33.65;;;;;;;7.84;75.25;100755.05;1787297;80;21589;-66
2020/12/24 09:20:31;;;;;;;60.00;37.17;;;;;;;7.88;75.17;100745.02;1787717;80;21170;-66
2020/12/24 09:23:12;;;;;;;51.85;33.15;;;;;;;7.91;74.98;100739.36;1787144;80;21236;-66
2020/12/24 09:25:46;;;;;;;57.55;34.80;;;;;;;7.97;75.20;100740.66;1787058;80;21138;-63
2020/12/24 09:28:23;;;;;;;50.78;31.70;;;;;;;8.02;74.84;100738.94;1787143;80;21131;-64
2020/12/24 09:30:53;;;;;;;54.15;33.73;;;;;;;8.06;74.56;100733.30;1786714;80;21280;-63
2020/12/24 09:33:21;;;;;;;56.00;32.90;;;;;;;8.08;74.73;100728.94;1788144;79;21123;-66
2020/12/24 09:35:50;;;;;;;56.40;33.83;;;;;;;8.10;74.63;100720.64;1787912;79;21134;-65
2020/12/24 09:38:19;;;;;;;59.58;35.15;;;;;;;8.14;74.61;100714.09;1819214;79;21154;-64
2020/12/24 09:40:47;;;;;;;55.43;35.10;;;;;;;8.20;74.60;100717.15;1801236;79;21561;-66
2020/12/24 09:43:15;;;;;;;56.40;33.58;;;;;;;8.23;74.48;100718.92;1793167;79;21131;-63
2020/12/24 09:45:43;;;;;;;54.73;33.42;;;;;;;8.25;74.17;100720.66;1819275;79;21590;-63
2020/12/24 09:48:11;;;;;;;50.52;31.33;;;;;;;8.26;73.90;100718.48;1818036;79;21166;-65
2020/12/24 09:50:40;;;;;;;54.30;33.75;;;;;;;8.26;73.88;100721.11;1786746;80;21587;-63
2020/12/24 09:53:08;;;;;;;51.25;32.53;;;;;;;8.27;73.89;100708.89;1787115;80;21135;-65
2020/12/24 09:55:35;;;;;;;51.95;32.30;;;;;;;8.29;74.08;100701.45;1787085;80;21147;-65
2020/12/24 09:58:03;;;;;;;53.45;32.93;;;;;;;8.35;74.22;100697.98;1787430;80;21576;-65
2020/12/24 10:00:31;;;;;;;47.90;30.00;;;;;;;8.40;74.07;100693.59;1795839;79;21163;-65
2020/12/24 10:02:59;;;;;;;51.05;31.50;;;;;;;8.45;73.98;100698.41;1764907;80;21135;-65
2020/12/24 10:05:27;;;;;;;49.75;30.77;;;;;;;8.47;73.94;100695.81;1787452;80;21076;-65
2020/12/24 10:07:57;;;;;;;51.08;32.65;;;;;;;8.51;74.04;100690.16;1787171;80;21212;-65
2020/12/24 10:10:24;;;;;;;51.20;31.90;;;;;;;8.53;73.93;100693.66;1790361;79;21542;-66
2020/12/24 10:12:52;;;;;;;46.92;29.72;;;;;;;8.57;73.92;100683.18;1741807;82;21101;-63
2020/12/24 10:15:21;;;;;;;47.98;30.97;;;;;;;8.62;73.89;100676.61;1790845;79;21141;-65
2020/12/24 10:17:49;;;;;;;41.48;27.40;;;;;;;8.64;73.83;100678.80;1785006;79;21574;-65
2020/12/24 10:20:17;;;;;;;40.15;25.85;;;;;;;8.65;73.74;100670.06;1782035;80;21270;-65
2020/12/24 10:22:44;;;;;;;40.33;26.17;;;;;;;8.66;73.63;100677.48;1784833;79;21573;-65
2020/12/24 10:25:12;;;;;;;42.53;26.60;;;;;;;8.67;73.76;100673.98;1779154;80;21154;-63
2020/12/24 10:27:40;;;;;;;42.38;26.40;;;;;;;8.68;73.82;100671.37;1778826;81;21208;-63
2020/12/24 10:30:08;;;;;;;37.40;24.52;;;;;;;8.72;73.84;100673.55;1780617;80;21546;-65
2020/12/24 10:32:40;;;;;;;40.10;26.05;;;;;;;8.74;73.91;100667.44;1784551;80;21147;-66
2020/12/24 10:35:05;;;;;;;41.30;26.12;;;;;;;8.77;73.87;100667.86;1784442;80;21558;-63
2020/12/24 10:37:33;;;;;;;36.53;24.32;;;;;;;8.76;73.71;100661.75;1784566;80;21159;-63
2020/12/24 10:40:03;;;;;;;39.75;24.75;;;;;;;8.78;73.74;100669.61;1781205;80;21140;-65
2020/12/24 10:42:33;;;;;;;44.10;26.40;;;;;;;8.80;73.64;100667.00;1786371;79;21322;-63
2020/12/24 10:45:01;;;;;;;37.08;25.45;;;;;;;8.81;73.75;100664.36;1779086;81;21281;-63
2020/12/24 10:47:30;;;;;;;40.03;25.80;;;;;;;8.77;73.96;100656.94;1778960;81;21585;-66
2020/12/24 10:49:58;;;;;;;39.05;24.80;;;;;;;8.77;74.02;100650.80;1783573;79;21543;-66
2020/12/24 10:52:26;;;;;;;36.63;23.87;;;;;;;8.80;73.99;100640.76;1749620;82;21143;-61
2020/12/24 10:54:56;;;;;;;35.43;23.35;;;;;;;8.82;74.01;100643.80;1792104;80;21129;-61
2020/12/24 10:57:25;;;;;;;35.60;22.90;;;;;;;8.83;73.99;100640.76;1786447;79;21171;-61
2020/12/24 10:59:52;;;;;;;34.40;22.58;;;;;;;8.82;73.97;100641.18;1778981;81;21143;-61
2020/12/24 11:02:20;;;;;;;39.15;23.67;;;;;;;8.82;73.99;100640.32;1782870;79;21578;-61
2020/12/24 11:04:47;;;;;;;34.25;21.93;;;;;;;8.84;74.08;100624.99;1787239;79;21586;-65
2020/12/24 11:07:15;;;;;;;39.38;25.52;;;;;;;8.86;74.08;100623.66;1722203;82;21184;-61
2020/12/24 11:09:42;;;;;;;39.27;25.72;;;;;;;8.90;74.16;100625.41;1778778;80;21648;-65
2020/12/24 11:12:10;;;;;;;36.45;23.90;;;;;;;8.93;74.18;100620.16;1778987;81;21610;-61
2020/12/24 11:14:37;;;;;;;41.35;26.55;;;;;;;8.95;74.21;100614.47;1778877;81;21578;-62
2020/12/24 11:17:05;;;;;;;35.68;23.45;;;;;;;8.99;74.33;100624.55;1779308;80;21586;-61
2020/12/24 11:19:33;;;;;;;36.38;23.80;;;;;;;9.03;74.30;100628.46;1792768;80;21135;-65
2020/12/24 11:22:01;;;;;;;37.93;25.52;;;;;;;9.05;74.22;100623.22;1791121;79;21199;-62
2020/12/24 11:24:30;;;;;;;35.05;24.65;;;;;;;9.10;74.16;100623.20;1792799;80;21574;-65
2020/12/24 11:26:58;;;;;;;32.15;22.40;;;;;;;9.12;74.20;100616.20;1792020;79;21131;-62
2020/12/24 11:29:25;;;;;;;30.68;21.75;;;;;;;9.19;74.23;100610.05;1719347;82;21550;-61
2020/12/24 11:31:58;;;;;;;30.72;21.75;;;;;;;9.21;74.18;100610.47;1772232;79;21155;-65
2020/12/24 11:34:28;;;;;;;32.15;20.77;;;;;;;9.25;74.00;100606.52;1777520;80;21150;-65